createdAt,value
2019-02-10T16:53:35.937Z,40.10
2019-02-10T16:56:05.240Z,37.70
2019-02-10T16:58:34.603Z,38.20
2019-02-10T17:01:04.138Z,39.40
2019-02-10T17:03:33.539Z,39.10
2019-02-10T17:06:02.913Z,39.10
2019-02-10T17:08:32.362Z,38.90
2019-02-10T17:11:01.729Z,38.90
2019-02-10T17:13:31.094Z,39.20
2019-02-10T17:16:05.186Z,39.40
2019-02-10T17:18:31.447Z,39.60
2019-02-10T17:58:18.718Z,38.80
2019-02-10T18:00:49.655Z,36.50
2019-02-10T18:03:19.021Z,35.40
2019-02-10T18:05:48.386Z,35.40
2019-02-10T18:08:17.785Z,35.80
2019-02-10T18:10:47.147Z,36.30
2019-02-10T18:13:17.589Z,36.60
2019-02-10T18:15:51.613Z,36.90
2019-02-10T18:18:22.538Z,37.10
2019-02-10T18:20:59.723Z,37.50
2019-02-10T18:23:34.830Z,37.50
2019-02-10T18:26:24.345Z,37.50
2019-02-10T18:29:11.477Z,37.90
2019-02-10T18:31:45.079Z,38.00
2019-02-10T18:34:32.362Z,37.80
2019-02-10T18:37:12.378Z,38.00
2019-02-10T18:39:43.321Z,38.30
2019-02-10T18:42:20.792Z,38.10
2019-02-10T18:44:49.658Z,38.40
2019-02-10T18:47:36.911Z,38.30
2019-02-10T18:50:10.355Z,38.20
2019-02-10T18:52:41.360Z,38.20
2019-02-10T18:55:12.459Z,38.20
2019-02-10T18:57:46.393Z,38.10
2019-02-10T19:00:20.070Z,37.70
2019-02-10T19:02:57.150Z,37.90
2019-02-10T19:05:44.591Z,38.10
2019-02-10T19:08:18.311Z,38.00
2019-02-10T19:10:56.318Z,38.20
2019-02-10T19:13:30.307Z,38.10
2019-02-10T19:16:19.647Z,38.10
2019-02-10T19:18:53.342Z,38.40
2019-02-10T19:21:24.268Z,38.30
2019-02-10T19:23:58.194Z,38.60
2019-02-10T19:26:41.556Z,38.50
2019-02-10T19:29:12.583Z,38.60
2019-02-10T19:31:58.888Z,38.60
2019-02-10T19:34:35.467Z,38.60
2019-02-10T19:37:18.690Z,38.60
2019-02-10T19:39:49.633Z,38.70
2019-02-10T19:42:20.555Z,38.60
2019-02-10T19:45:00.526Z,38.70
2019-02-10T19:47:31.536Z,38.70
2019-02-10T19:50:05.262Z,38.80
2019-02-10T19:52:39.230Z,38.40
2019-02-10T19:55:10.154Z,38.30
2019-02-10T19:57:57.622Z,38.10
2019-02-10T20:00:31.354Z,38.00
2019-02-10T20:03:02.367Z,37.90
2019-02-10T20:05:36.323Z,37.80
2019-02-10T20:08:07.327Z,37.80
2019-02-10T20:10:56.431Z,37.70
2019-02-10T20:13:39.406Z,37.60
2019-02-10T20:16:13.143Z,37.50
2019-02-10T20:18:53.076Z,37.40
2019-02-10T20:21:29.889Z,37.40
2019-02-10T20:24:03.770Z,37.40
2019-02-10T20:26:40.522Z,37.30
2019-02-10T20:29:17.503Z,37.40
2019-02-10T20:31:48.511Z,37.40
2019-02-10T20:34:19.554Z,37.40
2019-02-10T20:36:53.463Z,37.30
2019-02-10T20:39:40.793Z,37.40
2019-02-10T20:42:12.695Z,37.40
2019-02-10T20:44:43.954Z,37.40
2019-02-10T20:47:14.363Z,37.40
2019-02-10T20:49:45.382Z,37.50
2019-02-10T20:52:15.938Z,37.40
2019-02-10T20:54:49.772Z,37.40
2019-02-10T20:57:23.970Z,37.50
2019-02-10T21:00:06.932Z,37.40
2019-02-10T21:02:37.978Z,37.30
2019-02-10T21:05:11.656Z,37.40
2019-02-10T21:07:42.662Z,37.40
2019-02-10T21:10:19.645Z,37.40
2019-02-10T21:12:50.642Z,37.40
2019-02-10T21:15:21.658Z,37.40
2019-02-10T21:17:54.942Z,37.40
2019-02-10T21:20:41.854Z,37.40
2019-02-10T21:23:21.581Z,37.40
2019-02-10T21:25:58.398Z,37.50
2019-02-10T21:28:29.406Z,37.50
2019-02-10T21:31:06.433Z,37.60
2019-02-10T21:33:49.548Z,37.70
2019-02-10T21:36:26.230Z,37.60
2019-02-10T21:38:57.234Z,37.50
2019-02-10T21:41:34.033Z,37.80
2019-02-10T21:44:05.106Z,37.80
2019-02-10T21:46:44.943Z,37.80
2019-02-10T21:49:14.329Z,37.80
2019-02-10T21:51:43.692Z,37.90
2019-02-10T21:54:13.150Z,37.80
2019-02-10T21:56:42.838Z,37.90
2019-02-10T21:59:12.274Z,37.90
2019-02-10T22:01:41.622Z,37.80
2019-02-10T22:04:11.175Z,37.70
2019-02-10T22:06:40.590Z,37.80
2019-02-10T22:09:11.082Z,37.80
2019-02-10T22:11:40.626Z,37.80
2019-02-10T22:14:10.218Z,37.80
2019-02-10T22:16:39.828Z,37.80
2019-02-10T22:19:09.310Z,37.70
2019-02-10T22:21:38.883Z,37.70
2019-02-10T22:24:08.413Z,37.80
2019-02-10T22:26:37.810Z,37.80
2019-02-10T22:29:07.148Z,37.70
2019-02-10T22:31:36.571Z,37.80
2019-02-10T22:34:06.154Z,37.80
2019-02-10T22:36:35.588Z,37.80
2019-02-10T22:39:05.323Z,37.80
2019-02-10T22:41:34.910Z,37.70
2019-02-10T22:44:04.276Z,37.80
2019-02-10T22:46:33.650Z,37.70
2019-02-10T22:49:04.003Z,37.70
2019-02-10T22:51:33.327Z,37.70
2019-02-10T22:54:02.803Z,37.70
2019-02-10T22:56:32.429Z,37.60
2019-02-10T22:59:03.091Z,37.40
2019-02-10T23:01:33.960Z,37.30
2019-02-10T23:04:03.523Z,37.50
2019-02-10T23:06:33.421Z,37.50
2019-02-10T23:09:06.091Z,37.40
2019-02-10T23:11:35.615Z,37.40
2019-02-10T23:14:05.222Z,37.50
2019-02-10T23:16:34.701Z,37.40
2019-02-10T23:19:04.225Z,37.40
2019-02-10T23:21:33.765Z,37.40
2019-02-10T23:24:04.930Z,37.30
2019-02-10T23:26:33.979Z,37.30
2019-02-10T23:29:03.480Z,37.20
2019-02-10T23:31:32.862Z,37.20
2019-02-10T23:34:02.298Z,37.30
2019-02-10T23:36:31.659Z,37.20
2019-02-10T23:39:01.097Z,37.00
2019-02-10T23:41:31.714Z,37.10
2019-02-10T23:44:01.145Z,37.00
2019-02-10T23:46:30.503Z,36.90
2019-02-10T23:48:59.903Z,36.90
2019-02-10T23:51:29.315Z,36.90
2019-02-10T23:53:58.683Z,36.90
2019-02-10T23:56:28.043Z,36.90
2019-02-10T23:58:57.406Z,36.80
